sensor_id;sensor_type;location;lat;lon;timestamp;pressure;altitude;pressure_sealevel;temperature;humidity
53262;BME280;39658;51.090;-1.786;2023-04-28T00:01:15;100416.94;;;10.94;100.00
53262;BME280;39658;51.090;-1.786;2023-04-28T00:03:42;100414.41;;;10.92;100.00
53262;BME280;39658;51.090;-1.786;2023-04-28T00:06:09;100416.75;;;10.84;100.00
53262;BME280;39658;51.090;-1.786;2023-04-28T00:08:36;100416.75;;;10.84;100.00
53262;BME280;39658;51.090;-1.786;2023-04-28T00:11:08;100416.03;;;10.82;100.00
53262;BME280;39658;51.090;-1.786;2023-04-28T00:13:36;100433.88;;;10.78;100.00
53262;BME280;39658;51.090;-1.786;2023-04-28T00:16:03;100462.03;;;10.78;100.00
53262;BME280;39658;51.090;-1.786;2023-04-28T00:18:30;100458.66;;;10.76;100.00
53262;BME280;39658;51.090;-1.786;2023-04-28T00:20:57;100465.94;;;10.72;100.00
53262;BME280;39658;51.090;-1.786;2023-04-28T00:23:24;100469.53;;;10.71;100.00
53262;BME280;39658;51.090;-1.786;2023-04-28T00:25:51;100492.66;;;10.68;100.00
53262;BME280;39658;51.090;-1.786;2023-04-28T00:28:18;100486.00;;;10.62;100.00
53262;BME280;39658;51.090;-1.786;2023-04-28T00:30:46;100476.72;;;10.56;100.00
53262;BME280;39658;51.090;-1.786;2023-04-28T00:33:13;100496.75;;;10.59;100.00
53262;BME280;39658;51.090;-1.786;2023-04-28T00:35:40;100494.22;;;10.57;100.00
53262;BME280;39658;51.090;-1.786;2023-04-28T00:38:06;100496.97;;;10.56;100.00
53262;BME280;39658;51.090;-1.786;2023-04-28T00:40:33;100493.59;;;10.54;100.00
53262;BME280;39658;51.090;-1.786;2023-04-28T00:43:01;100498.56;;;10.58;100.00
53262;BME280;39658;51.090;-1.786;2023-04-28T00:45:28;100491.69;;;10.56;100.00
53262;BME280;39658;51.090;-1.786;2023-04-28T00:47:56;100498.03;;;10.53;100.00
53262;BME280;39658;51.090;-1.786;2023-04-28T00:50:24;100506.91;;;10.52;100.00
53262;BME280;39658;51.090;-1.786;2023-04-28T00:52:51;100496.34;;;10.52;100.00
53262;BME280;39658;51.090;-1.786;2023-04-28T00:55:18;100505.81;;;10.55;100.00
53262;BME280;39658;51.090;-1.786;2023-04-28T00:57:46;100505.59;;;10.58;100.00
53262;BME280;39658;51.090;-1.786;2023-04-28T01:00:14;100504.16;;;10.54;100.00
53262;BME280;39658;51.090;-1.786;2023-04-28T01:02:41;100507.94;;;10.50;100.00
53262;BME280;39658;51.090;-1.786;2023-04-28T01:05:10;100510.69;;;10.48;100.00
53262;BME280;39658;51.090;-1.786;2023-04-28T01:07:37;100511.75;;;10.46;100.00
53262;BME280;39658;51.090;-1.786;2023-04-28T01:10:04;100514.50;;;10.44;100.00
53262;BME280;39658;51.090;-1.786;2023-04-28T01:12:32;100523.25;;;10.45;100.00
53262;BME280;39658;51.090;-1.786;2023-04-28T01:14:58;100525.66;;;10.48;100.00
53262;BME280;39658;51.090;-1.786;2023-04-28T01:17:25;100529.34;;;10.45;100.00
53262;BME280;39658;51.090;-1.786;2023-04-28T01:19:52;100530.22;;;10.46;100.00
53262;BME280;39658;51.090;-1.786;2023-04-28T01:22:21;100530.09;;;10.47;100.00
53262;BME280;39658;51.090;-1.786;2023-04-28T01:24:49;100539.78;;;10.47;100.00
53262;BME280;39658;51.090;-1.786;2023-04-28T01:27:16;100541.38;;;10.49;100.00
53262;BME280;39658;51.090;-1.786;2023-04-28T01:29:43;100560.03;;;10.46;100.00
53262;BME280;39658;51.090;-1.786;2023-04-28T01:32:09;100560.25;;;10.43;100.00
53262;BME280;39658;51.090;-1.786;2023-04-28T01:34:36;100551.41;;;10.44;100.00
53262;BME280;39658;51.090;-1.786;2023-04-28T01:37:03;100554.03;;;10.44;100.00
53262;BME280;39658;51.090;-1.786;2023-04-28T01:39:29;100562.88;;;10.43;100.00
53262;BME280;39658;51.090;-1.786;2023-04-28T01:41:57;100557.72;;;10.41;100.00
53262;BME280;39658;51.090;-1.786;2023-04-28T01:44:24;100563.41;;;10.48;100.00
53262;BME280;39658;51.090;-1.786;2023-04-28T01:46:51;100572.59;;;10.43;100.00
53262;BME280;39658;51.090;-1.786;2023-04-28T01:49:18;100569.09;;;10.42;100.00
53262;BME280;39658;51.090;-1.786;2023-04-28T01:51:45;100570.06;;;10.41;100.00
53262;BME280;39658;51.090;-1.786;2023-04-28T01:54:11;100578.78;;;10.41;100.00
53262;BME280;39658;51.090;-1.786;2023-04-28T01:56:38;100586.38;;;10.46;100.00
53262;BME280;39658;51.090;-1.786;2023-04-28T01:59:06;100583.34;;;10.39;100.00
53262;BME280;39658;51.090;-1.786;2023-04-28T02:01:33;100585.22;;;10.37;100.00
53262;BME280;39658;51.090;-1.786;2023-04-28T02:04:00;100586.19;;;10.36;100.00
53262;BME280;39658;51.090;-1.786;2023-04-28T02:06:27;100592.38;;;10.35;100.00
53262;BME280;39658;51.090;-1.786;2023-04-28T02:08:53;100601.22;;;10.34;100.00
53262;BME280;39658;51.090;-1.786;2023-04-28T02:11:20;100601.22;;;10.34;100.00
53262;BME280;39658;51.090;-1.786;2023-04-28T02:13:47;100605.66;;;10.34;100.00
53262;BME280;39658;51.090;-1.786;2023-04-28T02:16:16;100613.47;;;10.35;100.00
53262;BME280;39658;51.090;-1.786;2023-04-28T02:18:43;100606.41;;;10.36;100.00
53262;BME280;39658;51.090;-1.786;2023-04-28T02:21:10;100612.44;;;10.38;100.00
53262;BME280;39658;51.090;-1.786;2023-04-28T02:23:37;100615.44;;;10.32;100.00
53262;BME280;39658;51.090;-1.786;2023-04-28T02:26:05;100619.84;;;10.31;100.00
53262;BME280;39658;51.090;-1.786;2023-04-28T02:28:31;100619.56;;;10.36;100.00
53262;BME280;39658;51.090;-1.786;2023-04-28T02:31:05;100624.28;;;10.31;100.00
53262;BME280;39658;51.090;-1.786;2023-04-28T02:33:34;100629.56;;;10.31;100.00
53262;BME280;39658;51.090;-1.786;2023-04-28T02:36:02;100641.03;;;10.30;100.00
53262;BME280;39658;51.090;-1.786;2023-04-28T02:38:29;100642.84;;;10.29;100.00
53262;BME280;39658;51.090;-1.786;2023-04-28T02:40:57;100647.28;;;10.29;100.00
53262;BME280;39658;51.090;-1.786;2023-04-28T02:43:24;100643.88;;;10.27;100.00
53262;BME280;39658;51.090;-1.786;2023-04-28T02:45:51;100650.72;;;10.29;100.00
53262;BME280;39658;51.090;-1.786;2023-04-28T02:48:18;100645.38;;;10.31;100.00
53262;BME280;39658;51.090;-1.786;2023-04-28T02:50:46;100651.56;;;10.30;100.00
53262;BME280;39658;51.090;-1.786;2023-04-28T02:53:13;100642.09;;;10.27;100.00
53262;BME280;39658;51.090;-1.786;2023-04-28T02:55:40;100649.69;;;10.32;100.00
53262;BME280;39658;51.090;-1.786;2023-04-28T02:58:06;100648.09;;;10.29;100.00
53262;BME280;39658;51.090;-1.786;2023-04-28T03:00:33;100653.47;;;10.28;100.00
53262;BME280;39658;51.090;-1.786;2023-04-28T03:03:00;100658.53;;;10.31;100.00
53262;BME280;39658;51.090;-1.786;2023-04-28T03:05:27;100664.66;;;10.31;100.00
53262;BME280;39658;51.090;-1.786;2023-04-28T03:07:55;100655.06;;;10.30;100.00
53262;BME280;39658;51.090;-1.786;2023-04-28T03:10:22;100658.00;;;10.26;100.00
53262;BME280;39658;51.090;-1.786;2023-04-28T03:12:48;100664.00;;;10.28;100.00
53262;BME280;39658;51.090;-1.786;2023-04-28T03:15:15;100660.53;;;10.27;100.00
53262;BME280;39658;51.090;-1.786;2023-04-28T03:17:42;100656.00;;;10.29;100.00
53262;BME280;39658;51.090;-1.786;2023-04-28T03:20:10;100651.03;;;10.24;100.00
53262;BME280;39658;51.090;-1.786;2023-04-28T03:22:37;100643.63;;;10.17;100.00
53262;BME280;39658;51.090;-1.786;2023-04-28T03:25:06;100658.03;;;10.11;100.00
53262;BME280;39658;51.090;-1.786;2023-04-28T03:27:33;100654.34;;;10.01;100.00
53262;BME280;39658;51.090;-1.786;2023-04-28T03:30:00;100654.72;;;9.95;100.00
53262;BME280;39658;51.090;-1.786;2023-04-28T03:32:26;100665.38;;;9.93;100.00
53262;BME280;39658;51.090;-1.786;2023-04-28T03:34:53;100669.47;;;9.97;100.00
53262;BME280;39658;51.090;-1.786;2023-04-28T03:37:20;100672.00;;;9.99;100.00
53262;BME280;39658;51.090;-1.786;2023-04-28T03:39:47;100674.44;;;10.02;100.00
53262;BME280;39658;51.090;-1.786;2023-04-28T03:42:15;100675.22;;;10.04;100.00
53262;BME280;39658;51.090;-1.786;2023-04-28T03:44:42;100673.00;;;10.11;100.00
53262;BME280;39658;51.090;-1.786;2023-04-28T03:47:08;100678.00;;;10.15;100.00
53262;BME280;39658;51.090;-1.786;2023-04-28T03:49:35;100679.38;;;10.21;100.00
53262;BME280;39658;51.090;-1.786;2023-04-28T03:52:02;100681.81;;;10.24;100.00
53262;BME280;39658;51.090;-1.786;2023-04-28T03:54:29;100688.03;;;10.23;100.00
53262;BME280;39658;51.090;-1.786;2023-04-28T03:56:56;100683.78;;;10.20;100.00
53262;BME280;39658;51.090;-1.786;2023-04-28T03:59:25;100699.59;;;10.20;100.00
53262;BME280;39658;51.090;-1.786;2023-04-28T04:01:51;100698.66;;;10.21;100.00
53262;BME280;39658;51.090;-1.786;2023-04-28T04:04:18;100712.78;;;10.20;100.00
53262;BME280;39658;51.090;-1.786;2023-04-28T04:06:45;100717.09;;;10.21;100.00
53262;BME280;39658;51.090;-1.786;2023-04-28T04:09:12;100720.78;;;10.19;100.00
53262;BME280;39658;51.090;-1.786;2023-04-28T04:11:38;100732.38;;;10.16;100.00
53262;BME280;39658;51.090;-1.786;2023-04-28T04:14:05;100735.13;;;10.15;100.00
53262;BME280;39658;51.090;-1.786;2023-04-28T04:16:34;100731.50;;;10.16;100.00
53262;BME280;39658;51.090;-1.786;2023-04-28T04:19:01;100739.22;;;10.19;100.00
53262;BME280;39658;51.090;-1.786;2023-04-28T04:21:28;100738.28;;;10.20;100.00
53262;BME280;39658;51.090;-1.786;2023-04-28T04:23:56;100740.94;;;10.20;100.00
53262;BME280;39658;51.090;-1.786;2023-04-28T04:26:24;100741.03;;;10.18;100.00
53262;BME280;39658;51.090;-1.786;2023-04-28T04:28:50;100738.47;;;10.17;100.00
53262;BME280;39658;51.090;-1.786;2023-04-28T04:31:17;100740.28;;;10.16;100.00
53262;BME280;39658;51.090;-1.786;2023-04-28T04:33:46;100735.94;;;10.15;100.00
53262;BME280;39658;51.090;-1.786;2023-04-28T04:36:13;100743.75;;;10.17;100.00
53262;BME280;39658;51.090;-1.786;2023-04-28T04:38:40;100750.72;;;10.18;100.00
53262;BME280;39658;51.090;-1.786;2023-04-28T04:41:06;100753.25;;;10.19;100.00
53262;BME280;39658;51.090;-1.786;2023-04-28T04:43:33;100744.59;;;10.17;100.00
53262;BME280;39658;51.090;-1.786;2023-04-28T04:46:00;100748.19;;;10.16;100.00
53262;BME280;39658;51.090;-1.786;2023-04-28T04:48:28;100750.81;;;10.16;100.00
53262;BME280;39658;51.090;-1.786;2023-04-28T04:50:56;100749.84;;;10.17;100.00
53262;BME280;39658;51.090;-1.786;2023-04-28T04:53:23;100751.66;;;10.17;100.00
53262;BME280;39658;51.090;-1.786;2023-04-28T04:55:49;100756.00;;;10.18;100.00
53262;BME280;39658;51.090;-1.786;2023-04-28T04:58:16;100754.84;;;10.22;100.00
53262;BME280;39658;51.090;-1.786;2023-04-28T05:00:43;100760.09;;;10.22;100.00
53262;BME280;39658;51.090;-1.786;2023-04-28T05:03:10;100766.44;;;10.19;100.00
53262;BME280;39658;51.090;-1.786;2023-04-28T05:05:36;100762.75;;;10.22;100.00
53262;BME280;39658;51.090;-1.786;2023-04-28T05:08:05;100777.63;;;10.23;100.00
53262;BME280;39658;51.090;-1.786;2023-04-28T05:10:32;100783.63;;;10.25;100.00
53262;BME280;39658;51.090;-1.786;2023-04-28T05:12:59;100787.13;;;10.26;100.00
53262;BME280;39658;51.090;-1.786;2023-04-28T05:15:26;100780.69;;;10.30;100.00
53262;BME280;39658;51.090;-1.786;2023-04-28T05:17:52;100785.97;;;10.30;100.00
53262;BME280;39658;51.090;-1.786;2023-04-28T05:20:19;100794.63;;;10.32;100.00
53262;BME280;39658;51.090;-1.786;2023-04-28T05:22:46;100794.63;;;10.32;100.00
53262;BME280;39658;51.090;-1.786;2023-04-28T05:25:14;100794.09;;;10.41;100.00
53262;BME280;39658;51.090;-1.786;2023-04-28T05:27:41;100799.75;;;10.35;100.00
53262;BME280;39658;51.090;-1.786;2023-04-28T05:30:09;100798.69;;;10.37;100.00
53262;BME280;39658;51.090;-1.786;2023-04-28T05:32:36;100806.19;;;10.44;100.00
53262;BME280;39658;51.090;-1.786;2023-04-28T05:35:04;100801.91;;;10.43;100.00
53262;BME280;39658;51.090;-1.786;2023-04-28T05:37:31;100807.25;;;10.41;100.00
53262;BME280;39658;51.090;-1.786;2023-04-28T05:39:57;100806.09;;;10.45;100.00
53262;BME280;39658;51.090;-1.786;2023-04-28T05:42:26;100802.44;;;10.48;100.00
53262;BME280;39658;51.090;-1.786;2023-04-28T05:44:52;100806.88;;;10.47;100.00
53262;BME280;39658;51.090;-1.786;2023-04-28T05:47:19;100813.91;;;10.47;100.00
53262;BME280;39658;51.090;-1.786;2023-04-28T05:49:46;100803.84;;;10.53;100.00
53262;BME280;39658;51.090;-1.786;2023-04-28T05:52:13;100819.66;;;10.53;100.00
53262;BME280;39658;51.090;-1.786;2023-04-28T05:54:40;100828.09;;;10.58;100.00
53262;BME280;39658;51.090;-1.786;2023-04-28T05:57:06;100831.59;;;10.59;100.00
53262;BME280;39658;51.090;-1.786;2023-04-28T05:59:35;100825.91;;;10.65;100.00
53262;BME280;39658;51.090;-1.786;2023-04-28T06:02:01;100827.41;;;10.69;100.00
53262;BME280;39658;51.090;-1.786;2023-04-28T06:04:28;100835.44;;;10.68;100.00
53262;BME280;39658;51.090;-1.786;2023-04-28T06:06:55;100834.84;;;10.77;100.00
53262;BME280;39658;51.090;-1.786;2023-04-28T06:09:22;100836.00;;;10.86;100.00
53262;BME280;39658;51.090;-1.786;2023-04-28T06:11:49;100847.16;;;10.76;100.00
53262;BME280;39658;51.090;-1.786;2023-04-28T06:14:15;100846.31;;;10.76;100.00
53262;BME280;39658;51.090;-1.786;2023-04-28T06:16:44;100847.13;;;10.91;100.00
53262;BME280;39658;51.090;-1.786;2023-04-28T06:19:10;100852.09;;;10.95;100.00
53262;BME280;39658;51.090;-1.786;2023-04-28T06:21:38;100853.44;;;10.88;100.00
53262;BME280;39658;51.090;-1.786;2023-04-28T06:24:05;100860.00;;;10.95;100.00
53262;BME280;39658;51.090;-1.786;2023-04-28T06:26:32;100875.63;;;10.99;100.00
53262;BME280;39658;51.090;-1.786;2023-04-28T06:28:59;100874.13;;;10.94;100.00
53262;BME280;39658;51.090;-1.786;2023-04-28T06:31:26;100890.75;;;10.82;100.00
53262;BME280;39658;51.090;-1.786;2023-04-28T06:33:54;100890.34;;;10.88;100.00
53262;BME280;39658;51.090;-1.786;2023-04-28T06:36:20;100906.44;;;10.98;100.00
53262;BME280;39658;51.090;-1.786;2023-04-28T06:38:47;100913.50;;;10.98;100.00
53262;BME280;39658;51.090;-1.786;2023-04-28T06:41:14;100921.41;;;10.98;100.00
53262;BME280;39658;51.090;-1.786;2023-04-28T06:43:41;100932.31;;;11.06;100.00
53262;BME280;39658;51.090;-1.786;2023-04-28T06:46:07;100947.41;;;11.04;100.00
53262;BME280;39658;51.090;-1.786;2023-04-28T06:48:35;100952.69;;;11.04;100.00
53262;BME280;39658;51.090;-1.786;2023-04-28T06:51:04;100951.66;;;11.06;100.00
53262;BME280;39658;51.090;-1.786;2023-04-28T06:53:30;100961.34;;;11.06;100.00
53262;BME280;39658;51.090;-1.786;2023-04-28T06:55:58;100967.69;;;11.03;100.00
53262;BME280;39658;51.090;-1.786;2023-04-28T06:58:24;100973.06;;;11.02;100.00
53262;BME280;39658;51.090;-1.786;2023-04-28T07:00:51;100983.63;;;11.02;100.00
53262;BME280;39658;51.090;-1.786;2023-04-28T07:03:18;100989.97;;;11.12;100.00
53262;BME280;39658;51.090;-1.786;2023-04-28T07:05:45;100994.03;;;11.18;100.00
53262;BME280;39658;51.090;-1.786;2023-04-28T07:08:13;101005.63;;;11.15;100.00
53262;BME280;39658;51.090;-1.786;2023-04-28T07:10:41;101015.53;;;11.11;100.00
53262;BME280;39658;51.090;-1.786;2023-04-28T07:13:08;101025.31;;;11.24;100.00
53262;BME280;39658;51.090;-1.786;2023-04-28T07:15:35;101033.31;;;11.22;100.00
53262;BME280;39658;51.090;-1.786;2023-04-28T07:18:02;101046.13;;;11.28;100.00
53262;BME280;39658;51.090;-1.786;2023-04-28T07:20:28;101054.44;;;11.22;100.00
53262;BME280;39658;51.090;-1.786;2023-04-28T07:22:55;101051.59;;;11.25;100.00
53262;BME280;39658;51.090;-1.786;2023-04-28T07:25:23;101049.56;;;11.43;100.00
53262;BME280;39658;51.090;-1.786;2023-04-28T07:27:50;101065.34;;;11.30;100.00
53262;BME280;39658;51.090;-1.786;2023-04-28T07:30:18;101066.66;;;11.38;100.00
53262;BME280;39658;51.090;-1.786;2023-04-28T07:32:45;101060.50;;;11.37;100.00
53262;BME280;39658;51.090;-1.786;2023-04-28T07:35:12;101082.00;;;11.45;100.00
53262;BME280;39658;51.090;-1.786;2023-04-28T07:37:39;101089.72;;;11.48;100.00
53262;BME280;39658;51.090;-1.786;2023-04-28T07:40:06;101071.53;;;11.71;100.00
53262;BME280;39658;51.090;-1.786;2023-04-28T07:42:34;101060.16;;;11.83;100.00
53262;BME280;39658;51.090;-1.786;2023-04-28T07:45:03;101042.81;;;11.94;100.00
53262;BME280;39658;51.090;-1.786;2023-04-28T07:47:30;101035.81;;;11.93;100.00
53262;BME280;39658;51.090;-1.786;2023-04-28T07:49:57;101015.44;;;12.08;100.00
53262;BME280;39658;51.090;-1.786;2023-04-28T07:52:25;101008.34;;;12.08;100.00
53262;BME280;39658;51.090;-1.786;2023-04-28T07:54:51;101010.38;;;12.05;100.00
53262;BME280;39658;51.090;-1.786;2023-04-28T07:57:18;101012.38;;;12.01;100.00
53262;BME280;39658;51.090;-1.786;2023-04-28T07:59:46;101004.66;;;11.98;100.00
53262;BME280;39658;51.090;-1.786;2023-04-28T08:02:13;101011.19;;;11.92;100.00
53262;BME280;39658;51.090;-1.786;2023-04-28T08:04:40;101007.41;;;11.96;100.00
53262;BME280;39658;51.090;-1.786;2023-04-28T08:07:07;101010.19;;;11.80;100.00
53262;BME280;39658;51.090;-1.786;2023-04-28T08:09:34;101005.56;;;11.84;100.00
53262;BME280;39658;51.090;-1.786;2023-04-28T08:12:01;101018.81;;;11.70;100.00
53262;BME280;39658;51.090;-1.786;2023-04-28T08:14:28;101015.13;;;11.72;100.00
53262;BME280;39658;51.090;-1.786;2023-04-28T08:16:57;101021.97;;;11.62;100.00
53262;BME280;39658;51.090;-1.786;2023-04-28T08:19:23;101030.84;;;11.61;100.00
53262;BME280;39658;51.090;-1.786;2023-04-28T08:21:51;101027.34;;;11.60;100.00
53262;BME280;39658;51.090;-1.786;2023-04-28T08:24:17;101030.56;;;11.65;100.00
53262;BME280;39658;51.090;-1.786;2023-04-28T08:26:44;101034.22;;;11.63;100.00
53262;BME280;39658;51.090;-1.786;2023-04-28T08:29:11;101040.44;;;11.62;100.00
53262;BME280;39658;51.090;-1.786;2023-04-28T08:31:38;101043.66;;;11.67;100.00
53262;BME280;39658;51.090;-1.786;2023-04-28T08:34:06;101065.22;;;11.74;100.00
53262;BME280;39658;51.090;-1.786;2023-04-28T08:36:33;101072.50;;;11.70;100.00
53262;BME280;39658;51.090;-1.786;2023-04-28T08:39:00;101063.81;;;11.68;100.00
53262;BME280;39658;51.090;-1.786;2023-04-28T08:41:31;101062.78;;;11.71;100.00
53262;BME280;39658;51.090;-1.786;2023-04-28T08:43:58;101068.00;;;11.85;100.00
53262;BME280;39658;51.090;-1.786;2023-04-28T08:46:26;101066.84;;;11.89;100.00
53262;BME280;39658;51.090;-1.786;2023-04-28T08:48:59;101066.94;;;12.15;100.00
53262;BME280;39658;51.090;-1.786;2023-04-28T08:51:32;101056.41;;;12.41;100.00
53262;BME280;39658;51.090;-1.786;2023-04-28T08:54:01;101049.84;;;12.59;100.00
53262;BME280;39658;51.090;-1.786;2023-04-28T08:56:31;101030.22;;;12.87;100.00
53262;BME280;39658;51.090;-1.786;2023-04-28T08:59:01;101013.81;;;12.95;100.00
53262;BME280;39658;51.090;-1.786;2023-04-28T09:01:28;100999.97;;;13.16;100.00
53262;BME280;39658;51.090;-1.786;2023-04-28T09:03:55;100993.78;;;13.28;100.00
53262;BME280;39658;51.090;-1.786;2023-04-28T09:06:22;100986.94;;;13.25;100.00
53262;BME280;39658;51.090;-1.786;2023-04-28T09:08:50;101015.53;;;13.33;100.00
53262;BME280;39658;51.090;-1.786;2023-04-28T09:11:17;101032.88;;;13.37;100.00
53262;BME280;39658;51.090;-1.786;2023-04-28T09:13:45;101048.97;;;13.47;100.00
53262;BME280;39658;51.090;-1.786;2023-04-28T09:16:12;101056.91;;;13.47;100.00
53262;BME280;39658;51.090;-1.786;2023-04-28T09:18:39;101082.88;;;13.42;100.00
53262;BME280;39658;51.090;-1.786;2023-04-28T09:21:07;101106.25;;;13.48;100.00
53262;BME280;39658;51.090;-1.786;2023-04-28T09:23:35;101130.84;;;13.50;100.00
53262;BME280;39658;51.090;-1.786;2023-04-28T09:26:13;101139.63;;;13.51;100.00
53262;BME280;39658;51.090;-1.786;2023-04-28T09:28:40;100428.09;;;13.50;100.00
53262;BME280;39658;51.090;-1.786;2023-04-28T09:31:21;97730.66;;;13.60;100.00
53262;BME280;39658;51.090;-1.786;2023-04-28T09:33:55;97797.81;;;13.52;100.00
53262;BME280;39658;51.090;-1.786;2023-04-28T09:36:25;97831.66;;;13.85;100.00
53262;BME280;39658;51.090;-1.786;2023-04-28T09:38:56;97871.09;;;14.02;100.00
53262;BME280;39658;51.090;-1.786;2023-04-28T09:41:34;97914.44;;;13.94;100.00
53262;BME280;39658;51.090;-1.786;2023-04-28T09:44:09;97887.59;;;15.49;100.00
53262;BME280;39658;51.090;-1.786;2023-04-28T09:46:36;97881.25;;;17.02;100.00
53262;BME280;39658;51.090;-1.786;2023-04-28T09:49:02;97913.00;;;17.42;100.00
53262;BME280;39658;51.090;-1.786;2023-04-28T09:51:30;100076.31;;;18.16;100.00
53262;BME280;39658;51.090;-1.786;2023-04-28T09:53:59;100192.69;;;17.66;100.00
53262;BME280;39658;51.090;-1.786;2023-04-28T09:56:28;100219.34;;;17.32;100.00
53262;BME280;39658;51.090;-1.786;2023-04-28T09:58:55;100220.59;;;16.57;100.00
53262;BME280;39658;51.090;-1.786;2023-04-28T10:01:23;100203.69;;;15.94;100.00
53262;BME280;39658;51.090;-1.786;2023-04-28T10:03:51;100205.94;;;15.14;100.00
53262;BME280;39658;51.090;-1.786;2023-04-28T10:06:18;100202.25;;;14.78;100.00
53262;BME280;39658;51.090;-1.786;2023-04-28T10:08:46;100189.34;;;14.34;100.00
53262;BME280;39658;51.090;-1.786;2023-04-28T10:11:15;100192.13;;;14.13;100.00
53262;BME280;39658;51.090;-1.786;2023-04-28T10:13:43;100187.38;;;14.16;100.00
53262;BME280;39658;51.090;-1.786;2023-04-28T10:16:13;100169.66;;;14.46;100.00
53262;BME280;39658;51.090;-1.786;2023-04-28T10:18:40;100178.19;;;14.60;100.00
53262;BME280;39658;51.090;-1.786;2023-04-28T10:21:09;100176.50;;;14.88;100.00
53262;BME280;39658;51.090;-1.786;2023-04-28T10:27:11;100199.44;;;14.79;100.00
53262;BME280;39658;51.090;-1.786;2023-04-28T10:29:40;100178.63;;;14.84;100.00
53262;BME280;39658;51.090;-1.786;2023-04-28T10:32:23;100208.63;;;14.85;100.00
53262;BME280;39658;51.090;-1.786;2023-04-28T10:38:03;100224.16;;;15.84;100.00
53262;BME280;39658;51.090;-1.786;2023-04-28T10:40:30;100230.59;;;16.09;100.00
53262;BME280;39658;51.090;-1.786;2023-04-28T10:42:57;100246.66;;;15.90;100.00
53262;BME280;39658;51.090;-1.786;2023-04-28T10:49:05;100261.19;;;16.59;100.00
53262;BME280;39658;51.090;-1.786;2023-04-28T10:51:33;100262.91;;;15.87;100.00
53262;BME280;39658;51.090;-1.786;2023-04-28T10:54:15;100266.72;;;15.17;100.00
53262;BME280;39658;51.090;-1.786;2023-04-28T10:57:17;100238.69;;;15.42;100.00
53262;BME280;39658;51.090;-1.786;2023-04-28T10:59:45;100255.25;;;15.74;100.00
53262;BME280;39658;51.090;-1.786;2023-04-28T11:02:39;100263.53;;;15.71;100.00
53262;BME280;39658;51.090;-1.786;2023-04-28T11:05:17;100255.25;;;15.84;100.00
53262;BME280;39658;51.090;-1.786;2023-04-28T11:11:27;100272.53;;;15.88;100.00
53262;BME280;39658;51.090;-1.786;2023-04-28T11:13:55;100265.97;;;16.20;100.00
53262;BME280;39658;51.090;-1.786;2023-04-28T11:16:47;100273.53;;;16.60;100.00
53262;BME280;39658;51.090;-1.786;2023-04-28T11:19:17;100286.34;;;16.29;100.00
53262;BME280;39658;51.090;-1.786;2023-04-28T11:21:46;100284.06;;;16.34;100.00
53262;BME280;39658;51.090;-1.786;2023-04-28T11:24:13;100277.78;;;16.35;100.00
53262;BME280;39658;51.090;-1.786;2023-04-28T11:26:40;100280.31;;;16.55;100.00
53262;BME280;39658;51.090;-1.786;2023-04-28T11:29:08;100279.84;;;17.66;100.00
53262;BME280;39658;51.090;-1.786;2023-04-28T11:31:35;100297.13;;;19.23;100.00
53262;BME280;39658;51.090;-1.786;2023-04-28T11:34:04;100305.97;;;20.75;100.00
53262;BME280;39658;51.090;-1.786;2023-04-28T11:36:33;100353.41;;;19.05;100.00
53262;BME280;39658;51.090;-1.786;2023-04-28T11:39:03;100334.63;;;18.55;100.00
53262;BME280;39658;51.090;-1.786;2023-04-28T11:41:33;100355.66;;;20.06;100.00
53262;BME280;39658;51.090;-1.786;2023-04-28T11:44:09;100359.44;;;19.31;100.00
53262;BME280;39658;51.090;-1.786;2023-04-28T11:46:44;100342.97;;;20.40;100.00
53262;BME280;39658;51.090;-1.786;2023-04-28T11:49:11;100378.78;;;20.78;100.00
53262;BME280;39658;51.090;-1.786;2023-04-28T11:51:39;100495.91;;;21.01;100.00
53262;BME280;39658;51.090;-1.786;2023-04-28T11:54:08;100504.22;;;22.60;100.00
53262;BME280;39658;51.090;-1.786;2023-04-28T11:56:39;100498.44;;;24.16;100.00
53262;BME280;39658;51.090;-1.786;2023-04-28T11:59:07;100505.09;;;24.83;100.00
53262;BME280;39658;51.090;-1.786;2023-04-28T12:01:44;100510.63;;;22.74;100.00
53262;BME280;39658;51.090;-1.786;2023-04-28T12:04:11;100519.81;;;21.11;100.00
53262;BME280;39658;51.090;-1.786;2023-04-28T12:06:39;100524.38;;;23.01;100.00
53262;BME280;39658;51.090;-1.786;2023-04-28T12:09:17;100518.75;;;22.95;100.00
53262;BME280;39658;51.090;-1.786;2023-04-28T12:11:55;100522.03;;;22.23;100.00
53262;BME280;39658;51.090;-1.786;2023-04-28T12:14:23;100529.84;;;21.72;100.00
53262;BME280;39658;51.090;-1.786;2023-04-28T12:16:50;100528.06;;;22.48;100.00
53262;BME280;39658;51.090;-1.786;2023-04-28T12:19:17;100524.78;;;22.38;100.00
53262;BME280;39658;51.090;-1.786;2023-04-28T12:22:01;100535.47;;;22.61;100.00
53262;BME280;39658;51.090;-1.786;2023-04-28T12:24:30;100537.63;;;22.04;100.00
53262;BME280;39658;51.090;-1.786;2023-04-28T12:27:16;100536.53;;;21.13;100.00
53262;BME280;39658;51.090;-1.786;2023-04-28T12:29:44;100540.28;;;23.10;100.00
53262;BME280;39658;51.090;-1.786;2023-04-28T12:32:12;100544.63;;;21.05;100.00
53262;BME280;39658;51.090;-1.786;2023-04-28T12:34:40;100546.91;;;21.79;100.00
53262;BME280;39658;51.090;-1.786;2023-04-28T12:37:08;100553.19;;;19.86;100.00
53262;BME280;39658;51.090;-1.786;2023-04-28T12:39:38;100563.78;;;18.68;100.00
53262;BME280;39658;51.090;-1.786;2023-04-28T12:42:06;100569.16;;;19.02;100.00
53262;BME280;39658;51.090;-1.786;2023-04-28T12:44:33;100554.06;;;23.07;100.00
53262;BME280;39658;51.090;-1.786;2023-04-28T12:47:02;100558.53;;;22.17;100.00
53262;BME280;39658;51.090;-1.786;2023-04-28T12:49:29;100566.09;;;20.16;100.00